Time;durP1;ratioP1;P1;durP2;ratioP2;P2;SDS_P1;SDS_P2;PMS_P1;PMS_P2;Temp;Humidity;BMP_temperature;BMP_pressure;BME280_temperature;BME280_humidity;BME280_pressure;Samples;Min_cycle;Max_cycle;Signal;HPM_P1;HPM_P2
2021/03/22 00:00:01;;;;;;;11.30;1.90;;;;;;;3.53;73.18;101296.51;123402;1105;65062;-78
2021/03/22 00:02:27;;;;;;;19.00;2.20;;;;;;;3.52;73.37;101289.57;123389;1102;66111;-78
2021/03/22 00:04:54;;;;;;;14.10;2.25;;;;;;;3.52;74.49;101289.57;123527;1105;65219;-78
2021/03/22 00:07:20;;;;;;;9.93;1.90;;;;;;;3.51;73.85;101285.30;123265;1105;64889;-76
2021/03/22 00:09:49;;;;;;;12.93;2.20;;;;;;;3.53;74.62;101293.02;123362;1103;64972;-77
2021/03/22 00:12:15;;;;;;;11.27;1.93;;;;;;;3.53;74.72;101290.40;123341;1102;65025;-77
2021/03/22 00:14:42;;;;;;;13.90;2.13;;;;;;;3.52;73.98;101294.82;123326;1102;65276;-77
2021/03/22 00:17:08;;;;;;;17.03;2.70;;;;;;;3.52;74.20;101297.44;123358;1102;64905;-77
2021/03/22 00:19:34;;;;;;;6.57;1.67;;;;;;;3.50;74.97;101299.34;123398;1102;64978;-75
2021/03/22 00:22:00;;;;;;;8.13;2.25;;;;;;;3.51;74.09;101298.41;123368;1105;64908;-76
2021/03/22 00:24:26;;;;;;;16.37;2.10;;;;;;;3.52;75.25;101300.06;123312;1105;64997;-77
2021/03/22 00:26:52;;;;;;;9.03;2.00;;;;;;;3.51;74.79;101295.78;123411;1105;65702;-77
2021/03/22 00:29:19;;;;;;;13.60;1.47;;;;;;;3.51;75.14;101302.80;123445;1103;64889;-77
2021/03/22 00:31:45;;;;;;;9.90;1.43;;;;;;;3.49;75.07;101300.30;123381;1105;64939;-76
2021/03/22 00:34:11;;;;;;;12.40;2.47;;;;;;;3.49;75.63;101299.48;123330;1102;64850;-77
2021/03/22 00:36:38;;;;;;;19.13;2.80;;;;;;;3.50;75.21;101306.38;123348;1105;64850;-75
2021/03/22 00:39:04;;;;;;;24.77;3.03;;;;;;;3.50;75.55;101301.96;123377;1105;64928;-77
2021/03/22 00:41:30;;;;;;;9.93;1.73;;;;;;;3.51;75.65;101308.04;123390;1105;64928;-76
2021/03/22 00:43:56;;;;;;;8.83;1.03;;;;;;;3.50;75.76;101309.83;123369;1105;64949;-77
2021/03/22 00:46:23;;;;;;;14.40;2.60;;;;;;;3.48;74.94;101298.62;123315;1102;64974;-76
2021/03/22 00:48:49;;;;;;;12.03;3.03;;;;;;;3.48;75.04;101298.62;123355;1105;64963;-76
2021/03/22 00:51:18;;;;;;;7.47;2.37;;;;;;;3.47;74.59;101295.16;123456;1102;64911;-77
2021/03/22 00:53:44;;;;;;;15.33;1.80;;;;;;;3.48;76.42;101298.62;123334;1102;65285;-75
2021/03/22 00:56:10;;;;;;;9.40;1.97;;;;;;;3.50;74.95;101298.52;123317;1102;64953;-77
2021/03/22 00:58:40;;;;;;;20.60;2.97;;;;;;;3.49;75.34;101296.86;123380;1105;64880;-78
2021/03/22 01:01:07;;;;;;;12.27;2.53;;;;;;;3.47;76.09;101296.96;123383;1102;64911;-78
2021/03/22 01:03:35;;;;;;;10.43;1.40;;;;;;;3.45;75.48;101296.23;123468;1105;64891;-76
2021/03/22 01:06:04;;;;;;;8.60;2.27;;;;;;;3.42;76.03;101294.69;123522;1105;65032;-77
2021/03/22 01:08:32;;;;;;;9.40;2.40;;;;;;;3.39;76.58;101300.14;123522;1102;64982;-76
2021/03/22 01:11:03;;;;;;;21.27;1.90;;;;;;;3.39;76.73;101294.89;123414;1103;65016;-77
2021/03/22 01:13:39;;;;;;;16.60;2.60;;;;;;;3.36;76.75;101300.38;123313;1105;64924;-77
2021/03/22 01:16:26;;;;;;;13.20;2.60;;;;;;;3.33;77.00;101289.27;123435;1105;64905;-78
2021/03/22 01:18:57;;;;;;;13.85;2.30;;;;;;;3.28;76.42;101286.99;123465;1105;64898;-75
2021/03/22 01:21:30;;;;;;;18.57;3.50;;;;;;;3.22;77.21;101283.02;123431;1102;65275;-77
2021/03/22 01:23:58;;;;;;;9.83;1.63;;;;;;;3.16;77.09;101278.23;123444;1105;64899;-77
2021/03/22 01:26:29;;;;;;;12.30;2.20;;;;;;;3.12;77.69;101282.02;123381;1102;64982;-76
2021/03/22 01:28:56;;;;;;;12.93;1.80;;;;;;;3.10;77.24;101285.70;123396;1105;64982;-74
2021/03/22 01:31:23;;;;;;;9.63;1.23;;;;;;;3.06;78.15;101283.33;123386;1105;64905;-77
2021/03/22 01:33:52;;;;;;;13.30;2.60;;;;;;;3.04;77.12;101287.02;123478;1102;64918;-78
2021/03/22 01:36:24;;;;;;;6.07;1.57;;;;;;;3.03;77.44;101291.39;123349;1102;65715;-76
2021/03/22 01:38:53;;;;;;;15.40;2.10;;;;;;;3.02;78.80;101292.36;123438;1102;64990;-77
2021/03/22 01:41:45;;;;;;;8.60;2.30;;;;;;;3.03;78.12;101288.77;123397;1105;64895;-77
2021/03/22 01:44:25;;;;;;;9.30;2.00;;;;;;;3.06;77.93;101296.43;123379;1105;64969;-76
2021/03/22 01:46:53;;;;;;;19.60;3.43;;;;;;;3.08;78.17;101291.05;123339;1105;65544;-79
2021/03/22 01:49:22;;;;;;;23.03;2.80;;;;;;;3.09;78.22;101284.05;123410;1105;64989;-76
2021/03/22 01:51:50;;;;;;;12.23;2.43;;;;;;;3.11;77.31;101280.36;123368;1103;64902;-77
2021/03/22 01:54:16;;;;;;;17.50;3.10;;;;;;;3.12;77.69;101275.95;123364;1102;64912;-77
2021/03/22 01:56:48;;;;;;;11.13;2.07;;;;;;;3.14;77.25;101282.74;123412;1105;64942;-77
2021/03/22 01:59:20;;;;;;;10.10;2.00;;;;;;;3.16;78.46;101282.64;123386;1105;64920;-78
2021/03/22 02:01:51;;;;;;;8.43;2.17;;;;;;;3.18;77.35;101281.58;123376;1102;64998;-78
2021/03/22 02:04:19;;;;;;;15.77;1.93;;;;;;;3.19;77.91;101278.02;123406;1105;64934;-77
2021/03/22 02:06:47;;;;;;;9.47;1.43;;;;;;;3.19;77.73;101283.27;123644;1102;64909;-77
2021/03/22 02:09:14;;;;;;;9.05;1.40;;;;;;;3.20;77.40;101279.67;123437;1103;65486;-78
2021/03/22 02:11:41;;;;;;;11.10;2.03;;;;;;;3.19;77.58;101283.27;123343;1105;64945;-78
2021/03/22 02:14:09;;;;;;;6.80;1.70;;;;;;;3.21;77.63;101275.27;123366;1102;65051;-77
2021/03/22 02:16:54;;;;;;;11.43;1.50;;;;;;;3.23;78.34;101286.47;123390;1103;66092;-77
2021/03/22 02:19:53;;;;;;;15.90;2.60;;;;;;;3.24;77.70;101286.38;123296;1102;65213;-78
2021/03/22 02:22:57;;;;;;;19.70;3.27;;;;;;;3.23;77.27;101284.72;123429;1102;64812;-76
2021/03/22 02:25:47;;;;;;;8.55;1.95;;;;;;;3.21;77.72;101289.23;123415;1105;65870;-76
2021/03/22 02:28:58;;;;;;;23.83;3.03;;;;;;;3.20;77.37;101294.58;123410;1102;65488;-77
2021/03/22 02:31:51;;;;;;;7.77;1.63;;;;;;;3.23;77.05;101289.95;123102;1105;64924;-78
2021/03/22 02:34:24;;;;;;;13.83;2.03;;;;;;;3.25;77.27;101287.20;123444;1103;64966;-77
2021/03/22 02:37:09;;;;;;;13.67;2.17;;;;;;;3.24;77.38;101288.16;123460;1105;64905;-77
2021/03/22 02:39:44;;;;;;;7.80;1.67;;;;;;;3.21;77.17;101276.12;123383;1105;64921;-77
2021/03/22 02:42:13;;;;;;;13.17;2.53;;;;;;;3.19;78.18;101283.27;123464;1105;64917;-76
2021/03/22 02:44:39;;;;;;;10.83;1.43;;;;;;;3.19;77.66;101288.51;123411;1103;65118;-78
2021/03/22 02:47:27;;;;;;;9.97;1.80;;;;;;;3.17;77.26;101290.41;123432;1102;65708;-77
2021/03/22 02:49:56;;;;;;;11.70;2.20;;;;;;;3.15;78.09;101286.23;123559;1102;65313;-77
2021/03/22 02:52:50;;;;;;;9.97;2.30;;;;;;;3.13;77.75;101294.20;123515;1105;64898;-77
2021/03/22 02:55:44;;;;;;;7.47;1.37;;;;;;;3.11;77.73;101290.02;123374;1102;64985;-77
2021/03/22 02:58:13;;;;;;;10.63;2.90;;;;;;;3.09;77.20;101282.26;123421;1102;65020;-77
2021/03/22 03:00:51;;;;;;;23.07;2.30;;;;;;;3.08;77.28;101280.56;123343;1105;65437;-77
2021/03/22 03:03:20;;;;;;;18.40;3.47;;;;;;;3.06;77.40;101282.50;123421;1102;65714;-78
2021/03/22 03:05:52;;;;;;;13.30;2.20;;;;;;;3.02;77.50;101292.36;123460;1102;65695;-75
2021/03/22 03:08:25;;;;;;;8.50;1.53;;;;;;;3.00;78.60;101296.88;123396;1106;65628;-78
2021/03/22 03:10:52;;;;;;;10.77;2.47;;;;;;;2.98;78.45;101295.31;123412;1105;65248;-76
2021/03/22 03:13:18;;;;;;;18.50;2.60;;;;;;;2.97;78.32;101294.45;123354;1105;65715;-77
2021/03/22 03:15:44;;;;;;;10.33;2.50;;;;;;;2.99;77.62;101299.59;123353;1102;64915;-78
2021/03/22 03:18:11;;;;;;;10.83;1.77;;;;;;;3.00;78.40;101302.11;123384;1105;64885;-75
2021/03/22 03:20:37;;;;;;;11.47;1.87;;;;;;;3.02;77.96;101307.25;123387;1105;65410;-77
2021/03/22 03:23:03;;;;;;;11.53;2.13;;;;;;;3.02;77.43;101297.59;123430;1104;64880;-77
2021/03/22 03:25:30;;;;;;;13.20;2.40;;;;;;;3.03;78.47;101295.80;123327;1104;65711;-77
2021/03/22 03:27:57;;;;;;;21.65;2.20;;;;;;;3.06;78.26;101304.30;123375;1105;64931;-77
2021/03/22 03:30:28;;;;;;;13.53;1.93;;;;;;;3.08;78.84;101311.20;123414;1105;65691;-76
2021/03/22 03:32:56;;;;;;;13.30;2.30;;;;;;;3.09;77.69;101300.61;123256;1105;65401;-77
2021/03/22 03:35:26;;;;;;;17.40;3.47;;;;;;;3.09;77.63;101305.84;123354;1105;64924;-77
2021/03/22 03:37:53;;;;;;;17.53;2.17;;;;;;;3.10;77.73;101312.75;123424;1102;64886;-76
2021/03/22 03:40:24;;;;;;;18.83;2.17;;;;;;;3.10;78.02;101315.37;123370;1105;65710;-75
2021/03/22 03:42:51;;;;;;;10.50;1.60;;;;;;;3.11;78.02;101311.82;123396;1105;64899;-76
2021/03/22 03:45:20;;;;;;;18.20;3.17;;;;;;;3.12;78.14;101313.48;123325;1105;65345;-76
2021/03/22 03:48:08;;;;;;;11.43;1.93;;;;;;;3.12;78.07;101308.23;123443;1105;64927;-76
2021/03/22 03:50:35;;;;;;;7.70;1.43;;;;;;;3.12;79.40;101315.27;123384;1102;65691;-75
2021/03/22 03:53:02;;;;;;;18.00;2.87;;;;;;;3.12;78.61;101326.58;123422;1102;65023;-77
2021/03/22 03:55:31;;;;;;;16.63;1.90;;;;;;;3.14;79.67;101310.75;123621;1105;64946;-77
2021/03/22 03:57:58;;;;;;;10.60;1.90;;;;;;;3.13;79.50;101309.92;123579;1105;65001;-78
2021/03/22 04:00:37;;;;;;;7.90;1.80;;;;;;;3.14;78.76;101306.34;123425;1105;64933;-76
2021/03/22 04:03:21;;;;;;;14.70;2.03;;;;;;;3.15;79.53;101312.45;123512;1105;64924;-75
2021/03/22 04:06:16;;;;;;;15.60;2.50;;;;;;;3.13;79.06;101320.41;123615;1104;64898;-76
2021/03/22 04:08:57;;;;;;;11.17;2.17;;;;;;;3.13;78.33;101323.03;123477;1102;65004;-77
2021/03/22 04:11:27;;;;;;;6.47;1.60;;;;;;;3.13;79.12;101327.45;123380;1103;65049;-77
2021/03/22 04:13:55;;;;;;;16.30;2.30;;;;;;;3.14;78.68;101327.31;123375;1102;64851;-77
2021/03/22 04:16:23;;;;;;;12.30;1.90;;;;;;;3.16;79.32;101329.83;123620;1105;65226;-77
2021/03/22 04:18:50;;;;;;;3.43;0.93;;;;;;;3.16;79.67;101335.08;123510;1105;64920;-75
2021/03/22 04:21:20;;;;;;;7.10;1.47;;;;;;;3.14;79.04;101329.10;123423;1105;64927;-77
2021/03/22 04:23:49;;;;;;;5.87;0.87;;;;;;;3.13;80.16;101336.14;123314;1105;64915;-76
2021/03/22 04:26:16;;;;;;;6.95;1.20;;;;;;;3.11;79.30;101324.92;123363;1105;64972;-77
2021/03/22 04:28:43;;;;;;;14.40;2.77;;;;;;;3.13;78.97;101330.89;123388;1102;64911;-75
2021/03/22 04:31:15;;;;;;;12.10;1.90;;;;;;;3.13;79.33;101325.66;123596;1105;65675;-77
2021/03/22 04:33:42;;;;;;;19.23;2.50;;;;;;;3.12;80.03;101329.20;123607;1105;64937;-76
2021/03/22 04:36:09;;;;;;;7.97;1.30;;;;;;;3.13;79.95;101330.89;123417;1105;64928;-77
2021/03/22 04:38:35;;;;;;;12.43;1.97;;;;;;;3.12;80.16;101329.20;123389;1103;64988;-77
2021/03/22 04:41:02;;;;;;;6.77;2.30;;;;;;;3.12;80.14;101328.37;123416;1105;65433;-79
2021/03/22 04:43:29;;;;;;;13.77;2.33;;;;;;;3.13;80.58;101323.03;123366;1105;64969;-77
2021/03/22 04:45:55;;;;;;;13.67;1.77;;;;;;;3.12;79.40;101328.37;123310;1105;64966;-78
2021/03/22 04:48:21;;;;;;;15.90;4.30;;;;;;;3.12;80.15;101329.20;123383;1105;65905;-80
2021/03/22 04:50:49;;;;;;;7.73;1.40;;;;;;;3.12;81.03;101331.00;123531;1103;65061;-78
2021/03/22 04:53:16;;;;;;;16.40;2.67;;;;;;;3.10;80.61;101331.09;123404;1104;64991;-78
2021/03/22 04:55:42;;;;;;;9.23;2.13;;;;;;;3.09;80.35;101337.30;123563;1105;64997;-78
2021/03/22 04:58:08;;;;;;;8.40;1.70;;;;;;;3.10;79.98;101341.59;123416;1103;65016;-78
2021/03/22 05:00:40;;;;;;;13.73;2.47;;;;;;;3.11;80.09;101335.41;123281;1105;64966;-77
2021/03/22 05:03:09;;;;;;;17.83;2.53;;;;;;;3.11;80.91;101335.41;123400;1105;64914;-79
2021/03/22 05:05:37;;;;;;;8.97;1.93;;;;;;;3.11;79.89;101340.66;123404;1102;64918;-77
2021/03/22 05:08:06;;;;;;;9.97;2.07;;;;;;;3.10;79.85;101338.97;123300;1102;65732;-78
2021/03/22 05:10:36;;;;;;;13.57;2.03;;;;;;;3.10;79.36;101343.38;123519;1102;64921;-78
2021/03/22 05:13:03;;;;;;;6.77;1.77;;;;;;;3.10;79.64;101338.13;123375;1106;64928;-76
2021/03/22 05:15:30;;;;;;;9.60;1.83;;;;;;;3.10;79.64;101346.83;123370;1102;64906;-77
2021/03/22 05:17:58;;;;;;;26.60;2.47;;;;;;;3.10;79.10;101348.62;123432;1103;64911;-78
2021/03/22 05:20:32;;;;;;;11.63;1.33;;;;;;;3.10;78.81;101346.83;123428;1106;64902;-77
2021/03/22 05:23:03;;;;;;;9.20;2.27;;;;;;;3.10;78.28;101351.24;123344;1105;64921;-77
2021/03/22 05:25:30;;;;;;;10.17;1.97;;;;;;;3.09;78.62;101360.90;123409;1103;64978;-77
2021/03/22 05:27:56;;;;;;;10.47;2.13;;;;;;;3.10;79.02;101359.94;123394;1105;65438;-76
2021/03/22 05:30:22;;;;;;;15.20;2.20;;;;;;;3.12;78.38;101351.97;123361;1105;65285;-78
2021/03/22 05:32:49;;;;;;;10.00;2.13;;;;;;;3.13;78.82;101356.28;123425;1103;64997;-76
2021/03/22 05:35:21;;;;;;;6.27;1.33;;;;;;;3.12;78.65;101365.08;123551;1102;65686;-77
2021/03/22 05:37:48;;;;;;;7.90;1.53;;;;;;;3.10;79.24;101367.80;123342;1102;65052;-78
2021/03/22 05:40:30;;;;;;;14.67;2.20;;;;;;;3.10;78.56;101362.55;123357;1105;66124;-77
2021/03/22 05:43:03;;;;;;;10.57;1.40;;;;;;;3.08;79.45;101355.75;123381;1105;64984;-77
2021/03/22 05:45:51;;;;;;;19.37;2.30;;;;;;;3.10;78.66;101365.17;123358;1102;64843;-78
2021/03/22 05:48:50;;;;;;;10.93;2.20;;;;;;;3.09;79.38;101358.27;123396;1102;66102;-77
2021/03/22 05:51:34;;;;;;;7.17;2.67;;;;;;;3.10;78.77;101359.94;123302;1102;65114;-76
2021/03/22 05:54:25;;;;;;;17.45;2.70;;;;;;;3.12;78.77;101365.91;123367;1105;64921;-75
2021/03/22 05:57:09;;;;;;;15.87;2.80;;;;;;;3.13;79.71;101367.59;123384;1105;64940;-78
2021/03/22 05:59:53;;;;;;;15.33;2.17;;;;;;;3.17;79.95;101369.05;123406;1105;65246;-76
2021/03/22 06:02:38;;;;;;;7.73;1.67;;;;;;;3.23;79.46;101366.00;123396;1102;64882;-77
2021/03/22 06:05:09;;;;;;;;;;;;;;;3.24;78.83;101362.41;123377;1103;64939;-78
2021/03/22 06:07:43;;;;;;;8.67;1.30;;;;;;;3.23;78.82;101365.13;123415;1105;64918;-76
2021/03/22 06:10:17;;;;;;;9.70;1.57;;;;;;;3.21;78.06;101365.27;123345;1105;64915;-78
2021/03/22 06:12:55;;;;;;;11.53;2.30;;;;;;;3.19;77.34;101361.91;123470;1102;65697;-78
2021/03/22 06:15:42;;;;;;;9.37;1.63;;;;;;;3.19;77.43;101364.54;123381;1105;64911;-78
2021/03/22 06:18:31;;;;;;;10.37;2.10;;;;;;;3.23;76.99;101368.62;123459;1102;65542;-78
2021/03/22 06:21:05;;;;;;;9.93;2.23;;;;;;;3.26;76.90;101371.00;123429;1102;64918;-77
2021/03/22 06:23:44;;;;;;;14.83;3.33;;;;;;;3.29;77.15;101369.11;123380;1102;65874;-79
2021/03/22 06:26:40;;;;;;;10.83;1.47;;;;;;;3.29;77.80;101372.56;123738;1105;64956;-79
2021/03/22 06:29:25;;;;;;;13.67;2.50;;;;;;;3.34;77.76;101374.88;124642;1102;64924;-78
2021/03/22 06:32:00;;;;;;;16.83;3.10;;;;;;;3.40;77.58;101372.64;123249;1102;64885;-77
2021/03/22 06:34:51;;;;;;;7.43;1.43;;;;;;;3.47;76.43;101384.34;123478;1105;64969;-78
2021/03/22 06:37:21;;;;;;;7.67;2.20;;;;;;;3.54;77.51;101383.91;123372;1102;64963;-78
2021/03/22 06:39:51;;;;;;;6.67;1.33;;;;;;;3.60;77.41;101386.91;123657;1105;64892;-78
2021/03/22 06:42:20;;;;;;;9.87;1.30;;;;;;;3.68;76.22;101389.81;123444;1105;64992;-77
2021/03/22 06:44:46;;;;;;;9.83;1.70;;;;;;;3.79;77.29;101390.81;123382;1102;65244;-77
2021/03/22 06:47:12;;;;;;;7.63;1.70;;;;;;;3.93;77.21;101393.25;123279;1102;64844;-76
2021/03/22 06:49:52;;;;;;;11.25;1.98;;;;;;;4.02;76.28;101386.48;123354;1102;64863;-77
2021/03/22 06:52:24;;;;;;;8.30;2.13;;;;;;;4.09;77.02;101388.50;123436;1103;64907;-76
2021/03/22 06:54:56;;;;;;;12.90;2.33;;;;;;;4.11;76.84;101400.70;123453;1105;64891;-74
2021/03/22 06:57:28;;;;;;;10.90;1.90;;;;;;;4.15;77.15;101391.64;123495;1105;65042;-76
2021/03/22 07:00:15;;;;;;;7.63;2.10;;;;;;;4.19;75.43;101396.53;123398;1104;65908;-77
2021/03/22 07:02:46;;;;;;;11.13;2.27;;;;;;;4.23;75.43;101399.74;123369;1102;65244;-76
2021/03/22 07:05:17;;;;;;;14.40;2.33;;;;;;;4.29;76.41;101396.66;123368;1105;64921;-78
2021/03/22 07:07:53;;;;;;;10.60;2.10;;;;;;;4.38;76.72;101395.97;123421;1105;64952;-77
2021/03/22 07:10:21;;;;;;;12.60;2.97;;;;;;;4.47;73.86;101408.39;123500;1104;64921;-75
2021/03/22 07:13:03;;;;;;;5.10;1.43;;;;;;;4.57;74.84;101413.79;123561;1102;64923;-77
2021/03/22 07:15:33;;;;;;;8.87;2.27;;;;;;;4.61;72.83;101419.63;123379;1103;64892;-79
2021/03/22 07:18:18;;;;;;;8.50;1.87;;;;;;;4.59;72.22;101418.91;123427;1102;64889;-77
2021/03/22 07:20:59;;;;;;;12.47;2.37;;;;;;;4.59;73.13;101424.16;123663;1102;65685;-81
2021/03/22 07:23:29;;;;;;;4.53;1.93;;;;;;;4.59;72.60;101432.05;123439;1105;64844;-82
2021/03/22 07:26:10;;;;;;;9.77;1.80;;;;;;;4.62;73.40;101431.83;123445;1105;64940;-81
2021/03/22 07:28:42;;;;;;;10.13;2.07;;;;;;;4.69;73.49;101443.52;123461;1104;64911;-82
2021/03/22 07:31:24;;;;;;;7.97;2.43;;;;;;;4.71;71.80;101436.36;123555;1105;65003;-80
2021/03/22 07:34:16;;;;;;;13.80;2.27;;;;;;;4.66;70.52;101443.78;123460;1103;64844;-81
2021/03/22 07:37:12;;;;;;;13.77;2.03;;;;;;;4.61;71.35;101445.91;123535;1105;65004;-82
2021/03/22 07:39:51;;;;;;;5.70;1.70;;;;;;;4.63;70.75;101450.11;123466;1105;64973;-76
2021/03/22 07:42:59;;;;;;;4.15;1.65;;;;;;;4.65;71.55;101437.69;123365;1105;64909;-75
2021/03/22 07:45:59;;;;;;;7.77;2.63;;;;;;;4.76;71.28;101443.88;123260;1106;64872;-75
2021/03/22 07:48:45;;;;;;;10.83;2.30;;;;;;;4.82;70.55;101446.87;123441;1102;65202;-74
2021/03/22 07:51:30;;;;;;;9.90;2.10;;;;;;;4.98;71.34;101453.59;123621;1104;65045;-76
2021/03/22 07:54:09;;;;;;;5.97;1.60;;;;;;;5.22;69.27;101441.13;123554;1102;65010;-75
2021/03/22 07:57:10;;;;;;;9.00;2.40;;;;;;;5.41;69.78;101448.39;123513;1102;64943;-74
2021/03/22 08:00:04;;;;;;;6.57;2.50;;;;;;;5.60;69.41;101447.75;123498;1102;64892;-74
2021/03/22 08:02:42;;;;;;;7.87;1.83;;;;;;;5.78;69.05;101449.84;123476;1105;65001;-74
2021/03/22 08:05:22;;;;;;;8.50;3.20;;;;;;;5.90;66.83;101451.48;123585;1105;65042;-80
2021/03/22 08:07:56;;;;;;;6.83;2.63;;;;;;;5.97;66.24;101452.70;123506;1102;64908;-79
2021/03/22 08:10:51;;;;;;;8.40;2.50;;;;;;;5.93;66.18;101451.24;123765;1102;64873;-80
2021/03/22 08:13:30;;;;;;;4.70;2.17;;;;;;;5.92;65.77;101463.55;123815;1105;64844;-80
2021/03/22 08:16:26;;;;;;;7.40;2.20;;;;;;;5.86;65.33;101460.59;123817;1105;64853;-81
2021/03/22 08:18:58;;;;;;;15.67;2.03;;;;;;;5.77;65.68;101450.81;123883;1102;64924;-81
2021/03/22 08:21:41;;;;;;;10.97;1.80;;;;;;;5.75;65.96;101453.56;123833;1105;64923;-80
2021/03/22 08:24:54;;;;;;;13.87;2.77;;;;;;;5.82;65.23;101451.27;123536;1105;65291;-79
2021/03/22 08:27:26;;;;;;;8.57;2.20;;;;;;;6.04;65.92;101448.58;123726;1105;65394;-80
2021/03/22 08:30:07;;;;;;;3.60;1.35;;;;;;;6.06;65.12;101440.56;123807;1103;64895;-79
2021/03/22 08:32:49;;;;;;;8.00;2.27;;;;;;;6.18;65.63;101455.33;123807;1102;64924;-83
2021/03/22 08:35:16;;;;;;;4.53;1.47;;;;;;;6.23;65.30;101454.97;123708;1105;64997;-81
2021/03/22 08:38:01;;;;;;;6.13;2.07;;;;;;;6.22;64.45;101453.28;123530;1102;64956;-81
2021/03/22 08:40:50;;;;;;;5.93;1.63;;;;;;;6.24;64.02;101469.80;123989;1105;64987;-80
2021/03/22 08:43:24;;;;;;;8.73;1.90;;;;;;;6.29;64.80;101457.06;123741;1106;64965;-83
2021/03/22 08:46:08;;;;;;;7.42;2.30;;;;;;;6.35;65.32;101469.73;123651;1106;64908;-80
2021/03/22 08:48:35;;;;;;;5.40;1.77;;;;;;;6.43;64.11;101467.29;123708;1105;64933;-82
2021/03/22 08:51:06;;;;;;;11.73;2.43;;;;;;;6.59;64.09;101469.48;123480;1102;64902;-79
2021/03/22 08:53:39;;;;;;;5.60;1.83;;;;;;;6.66;62.05;101475.90;123451;1106;64895;-78
2021/03/22 08:56:25;;;;;;;10.40;2.80;;;;;;;6.61;63.07;101470.19;123404;1105;64921;-80
2021/03/22 08:58:57;;;;;;;4.70;1.33;;;;;;;6.72;62.74;101482.46;123460;1105;64988;-77
2021/03/22 09:01:27;;;;;;;12.23;2.90;;;;;;;6.85;63.15;101475.17;123422;1102;64910;-80
2021/03/22 09:03:54;;;;;;;7.50;1.93;;;;;;;7.00;60.96;101477.46;123813;1102;64888;-79
2021/03/22 09:06:27;;;;;;;8.17;2.13;;;;;;;7.21;60.86;101482.69;123471;1102;64914;-76
2021/03/22 09:09:00;;;;;;;9.00;2.20;;;;;;;7.37;59.45;101479.53;123751;1102;64892;-78
2021/03/22 09:11:26;;;;;;;7.20;1.70;;;;;;;7.48;57.18;101477.63;123598;1103;64892;-82
2021/03/22 09:14:04;;;;;;;9.10;2.00;;;;;;;7.52;58.66;101478.17;123474;1104;64902;-81
2021/03/22 09:16:30;;;;;;;4.60;1.65;;;;;;;7.50;59.82;101486.25;123486;1102;64831;-82
2021/03/22 09:19:09;;;;;;;11.53;3.27;;;;;;;7.44;60.39;101486.78;123560;1106;64914;-81
2021/03/22 09:21:42;;;;;;;8.47;2.40;;;;;;;7.31;60.88;101500.22;123479;1102;65428;-79
2021/03/22 09:24:40;;;;;;;16.10;2.93;;;;;;;7.27;61.22;101490.90;125520;1103;64972;-77
2021/03/22 09:27:13;;;;;;;9.00;2.23;;;;;;;7.23;60.44;101496.58;123517;1102;64994;-78
2021/03/22 09:30:02;;;;;;;5.30;1.63;;;;;;;7.05;61.33;101499.00;123374;1102;64892;-78
2021/03/22 09:32:33;;;;;;;9.00;2.10;;;;;;;6.95;61.61;101488.41;123236;1105;64892;-79
2021/03/22 09:35:29;;;;;;;5.87;1.77;;;;;;;6.97;60.77;101491.76;123465;1102;64909;-77
2021/03/22 09:38:22;;;;;;;10.27;3.00;;;;;;;7.19;62.22;101482.81;123354;1102;64937;-77
2021/03/22 09:40:55;;;;;;;7.65;1.70;;;;;;;7.49;60.59;101489.02;123437;1106;64943;-79
2021/03/22 09:43:28;;;;;;;12.87;3.03;;;;;;;7.58;59.54;101493.47;123415;1105;65384;-76
2021/03/22 09:46:01;;;;;;;7.60;2.63;;;;;;;7.69;60.25;101496.02;123446;1105;64847;-81
2021/03/22 09:48:36;;;;;;;9.87;1.90;;;;;;;7.72;59.76;101495.73;123736;1101;64879;-80
2021/03/22 09:51:03;;;;;;;4.20;1.65;;;;;;;7.66;57.91;101501.55;123529;1102;64885;-80
2021/03/22 09:53:49;;;;;;;10.77;2.53;;;;;;;7.57;58.18;101505.02;123588;1103;65237;-80
2021/03/22 09:56:27;;;;;;;6.43;1.63;;;;;;;7.49;56.44;101504.86;123446;1102;64962;-81
2021/03/22 09:58:53;;;;;;;8.13;2.20;;;;;;;7.46;57.94;101513.89;123511;1102;64978;-82
2021/03/22 10:01:25;;;;;;;5.90;1.80;;;;;;;7.32;56.83;101514.25;123425;1102;64914;-81
2021/03/22 10:04:17;;;;;;;6.77;1.73;;;;;;;7.17;56.49;101505.86;123409;1103;64982;-78
2021/03/22 10:07:03;;;;;;;6.27;1.90;;;;;;;7.27;56.90;101501.45;123360;1102;64911;-77
2021/03/22 10:09:39;;;;;;;4.73;2.03;;;;;;;7.75;57.70;101502.54;123446;1102;64886;-77
2021/03/22 10:12:11;;;;;;;6.23;2.17;;;;;;;8.10;55.91;101494.10;123418;1102;64775;-82
2021/03/22 10:14:42;;;;;;;5.40;1.40;;;;;;;8.09;55.12;101491.59;123434;1105;66065;-81
2021/03/22 10:17:22;;;;;;;8.47;2.23;;;;;;;8.04;55.27;101494.66;123476;1105;65215;-81
2021/03/22 10:19:49;;;;;;;8.60;2.17;;;;;;;8.00;56.55;101501.19;123547;1105;64924;-82
2021/03/22 10:22:21;;;;;;;3.90;1.63;;;;;;;8.09;54.40;101497.70;123406;1102;64917;-82
2021/03/22 10:25:13;;;;;;;5.00;1.70;;;;;;;8.26;53.60;101508.56;123462;1102;64972;-77
2021/03/22 10:27:40;;;;;;;7.40;1.67;;;;;;;8.37;53.74;101500.47;123409;1102;66149;-80
2021/03/22 10:30:23;;;;;;;5.60;1.90;;;;;;;8.59;53.65;101490.62;123405;1105;65712;-79
2021/03/22 10:33:02;;;;;;;7.13;1.97;;;;;;;8.64;51.70;101496.30;123520;1105;66362;-79
2021/03/22 10:35:45;;;;;;;8.20;2.50;;;;;;;8.73;51.52;101496.30;123418;1105;64937;-77
2021/03/22 10:38:20;;;;;;;7.43;2.57;;;;;;;8.86;51.53;101493.33;123401;1102;64907;-79
2021/03/22 10:40:46;;;;;;;8.30;2.17;;;;;;;9.00;51.80;101493.83;123506;1102;65003;-79
2021/03/22 10:43:30;;;;;;;11.40;1.97;;;;;;;9.15;52.94;101489.73;123549;1102;65723;-79
2021/03/22 10:45:59;;;;;;;9.60;1.95;;;;;;;9.09;50.99;101498.25;123349;1102;64828;-78
2021/03/22 10:48:34;;;;;;;6.00;1.43;;;;;;;8.82;51.84;101491.95;123450;1102;65335;-78
2021/03/22 10:51:15;;;;;;;5.60;1.57;;;;;;;8.53;51.83;101497.30;123440;1102;64850;-79
2021/03/22 10:53:54;;;;;;;7.15;1.95;;;;;;;8.53;51.30;101500.77;123416;1105;65155;-80
2021/03/22 10:56:31;;;;;;;6.50;1.47;;;;;;;8.49;51.23;101494.09;123484;1102;64931;-78
2021/03/22 10:59:01;;;;;;;;;;;;;;;8.62;52.14;101491.14;123623;1102;64911;-79
2021/03/22 11:01:33;;;;;;;4.75;1.55;;;;;;;8.88;50.88;101495.81;123559;1102;64838;-80
2021/03/22 11:04:07;;;;;;;4.80;1.60;;;;;;;9.20;49.38;101487.47;123434;1105;64905;-78
2021/03/22 11:06:38;;;;;;;6.90;1.67;;;;;;;9.24;48.03;101486.19;123789;1105;64934;-80
2021/03/22 11:09:07;;;;;;;5.40;1.40;;;;;;;9.18;47.57;101484.16;123477;1105;65680;-79
2021/03/22 11:11:34;;;;;;;6.90;1.60;;;;;;;9.12;47.46;101490.03;123507;1102;64908;-78
2021/03/22 11:14:05;;;;;;;3.83;1.30;;;;;;;9.30;47.65;101501.49;123340;1105;64965;-78
2021/03/22 11:16:35;;;;;;;4.15;1.30;;;;;;;9.69;47.77;101489.84;123403;1102;66082;-79
2021/03/22 11:19:32;;;;;;;5.53;1.50;;;;;;;9.85;46.52;101495.32;123367;1105;66137;-79
2021/03/22 11:22:00;;;;;;;7.33;2.40;;;;;;;9.80;46.15;101500.25;123403;1103;64943;-79
2021/03/22 11:24:43;;;;;;;4.33;1.30;;;;;;;9.77;46.48;101511.13;123479;1106;65059;-78
2021/03/22 11:27:12;;;;;;;6.27;1.37;;;;;;;9.71;47.06;101506.42;123420;1105;65249;-79
2021/03/22 11:29:56;;;;;;;9.07;2.03;;;;;;;9.66;46.48;101508.70;123517;1105;64889;-79
2021/03/22 11:32:27;;;;;;;6.37;1.60;;;;;;;9.73;45.56;101500.02;123586;1102;64883;-78
2021/03/22 11:34:56;;;;;;;5.43;1.83;;;;;;;9.99;45.84;101501.93;123813;1105;64905;-79
2021/03/22 11:37:33;;;;;;;4.87;1.60;;;;;;;10.12;44.65;101505.02;123639;1102;64985;-80
2021/03/22 11:40:10;;;;;;;3.77;2.17;;;;;;;10.33;44.58;101498.61;123613;1102;64882;-79
2021/03/22 11:42:53;;;;;;;2.97;1.13;;;;;;;10.23;44.79;101506.61;123420;1104;64770;-79
2021/03/22 11:45:28;;;;;;;8.47;1.40;;;;;;;10.06;45.01;101504.80;123340;1106;65674;-77
2021/03/22 11:47:55;;;;;;;6.20;1.63;;;;;;;10.00;45.63;101500.93;123445;1102;64949;-80
2021/03/22 11:50:21;;;;;;;5.17;1.87;;;;;;;10.15;46.36;101496.75;123424;1105;65676;-78
2021/03/22 11:53:03;;;;;;;4.15;1.60;;;;;;;10.43;47.52;101496.68;123416;1102;64950;-76
2021/03/22 11:55:45;;;;;;;4.40;1.40;;;;;;;10.83;44.35;101495.30;123383;1103;64898;-76